sensor_id;sensor_type;location;lat;lon;timestamp;pressure;altitude;pressure_sealevel;temperature;humidity
4326;BME280;58429;49.826;10.880;2023-05-11T00:00:10;98394;;;13.06;85.07
4326;BME280;58429;49.826;10.880;2023-05-11T00:01:10;98392;;;13.06;85.11
4326;BME280;58429;49.826;10.880;2023-05-11T00:02:10;98399;;;13.03;85.13
4326;BME280;58429;49.826;10.880;2023-05-11T00:03:10;98395;;;13.06;85.2
4326;BME280;58429;49.826;10.880;2023-05-11T00:04:10;98393;;;13.03;85.14
4326;BME280;58429;49.826;10.880;2023-05-11T00:05:10;98398;;;13.03;85.26
4326;BME280;58429;49.826;10.880;2023-05-11T00:06:10;98391;;;13.01;85.25
4326;BME280;58429;49.826;10.880;2023-05-11T00:07:10;98391;;;12.99;85.26
4326;BME280;58429;49.826;10.880;2023-05-11T00:08:10;98398;;;13.04;85.24
4326;BME280;58429;49.826;10.880;2023-05-11T00:09:10;98393;;;13.06;85.22
4326;BME280;58429;49.826;10.880;2023-05-11T00:10:10;98395;;;13.03;85.2
4326;BME280;58429;49.826;10.880;2023-05-11T00:11:10;98392;;;13.07;85.21
4326;BME280;58429;49.826;10.880;2023-05-11T00:12:10;98394;;;13.04;85.2
4326;BME280;58429;49.826;10.880;2023-05-11T00:13:10;98392;;;13.05;85.17
4326;BME280;58429;49.826;10.880;2023-05-11T00:14:10;98392;;;13.03;85.14
4326;BME280;58429;49.826;10.880;2023-05-11T00:15:10;98388;;;13.05;85.11
4326;BME280;58429;49.826;10.880;2023-05-11T00:16:10;98389;;;13.04;85.12
4326;BME280;58429;49.826;10.880;2023-05-11T00:17:10;98392;;;13.02;85.06
4326;BME280;58429;49.826;10.880;2023-05-11T00:18:10;98391;;;13.02;85.06
4326;BME280;58429;49.826;10.880;2023-05-11T00:19:10;98390;;;13.03;85.05
4326;BME280;58429;49.826;10.880;2023-05-11T00:20:10;98388;;;13.06;85.04
4326;BME280;58429;49.826;10.880;2023-05-11T00:21:10;98392;;;13.02;85.01
4326;BME280;58429;49.826;10.880;2023-05-11T00:22:10;98391;;;13.05;84.99
4326;BME280;58429;49.826;10.880;2023-05-11T00:23:10;98396;;;13.04;84.98
4326;BME280;58429;49.826;10.880;2023-05-11T00:24:10;98380;;;13.05;84.97
4326;BME280;58429;49.826;10.880;2023-05-11T00:25:10;98389;;;13.08;84.95
4326;BME280;58429;49.826;10.880;2023-05-11T00:26:10;98388;;;13.08;84.96
4326;BME280;58429;49.826;10.880;2023-05-11T00:27:10;98384;;;13.06;84.97
4326;BME280;58429;49.826;10.880;2023-05-11T00:28:10;98382;;;13.07;84.96
4326;BME280;58429;49.826;10.880;2023-05-11T00:29:10;98385;;;13.05;84.91
4326;BME280;58429;49.826;10.880;2023-05-11T00:30:10;98378;;;13.08;84.9
4326;BME280;58429;49.826;10.880;2023-05-11T00:31:10;98380;;;13.06;84.9
4326;BME280;58429;49.826;10.880;2023-05-11T00:32:10;98380;;;13.06;84.9
4326;BME280;58429;49.826;10.880;2023-05-11T00:33:10;98384;;;13.04;84.84
4326;BME280;58429;49.826;10.880;2023-05-11T00:34:10;98381;;;13.07;84.81
4326;BME280;58429;49.826;10.880;2023-05-11T00:35:10;98384;;;13.01;84.79
4326;BME280;58429;49.826;10.880;2023-05-11T00:36:10;98375;;;13.08;84.78
4326;BME280;58429;49.826;10.880;2023-05-11T00:37:10;98382;;;13.1;84.79
4326;BME280;58429;49.826;10.880;2023-05-11T00:38:10;98383;;;13.04;84.76
4326;BME280;58429;49.826;10.880;2023-05-11T00:39:10;98377;;;13.03;84.75
4326;BME280;58429;49.826;10.880;2023-05-11T00:40:10;98375;;;13.03;84.72
4326;BME280;58429;49.826;10.880;2023-05-11T00:41:10;98381;;;13.05;84.67
4326;BME280;58429;49.826;10.880;2023-05-11T00:42:10;98376;;;13.04;84.65
4326;BME280;58429;49.826;10.880;2023-05-11T00:43:10;98380;;;13.01;84.67
4326;BME280;58429;49.826;10.880;2023-05-11T00:44:10;98377;;;13;84.59
4326;BME280;58429;49.826;10.880;2023-05-11T00:45:10;98375;;;12.96;84.59
4326;BME280;58429;49.826;10.880;2023-05-11T00:46:10;98377;;;12.97;84.6
4326;BME280;58429;49.826;10.880;2023-05-11T00:47:10;98379;;;12.96;84.59
4326;BME280;58429;49.826;10.880;2023-05-11T00:48:10;98374;;;12.97;84.67
4326;BME280;58429;49.826;10.880;2023-05-11T00:49:10;98376;;;12.91;84.74
4326;BME280;58429;49.826;10.880;2023-05-11T00:50:10;98373;;;12.9;84.71
4326;BME280;58429;49.826;10.880;2023-05-11T00:51:10;98373;;;12.91;84.7
4326;BME280;58429;49.826;10.880;2023-05-11T00:52:10;98380;;;12.91;84.7
4326;BME280;58429;49.826;10.880;2023-05-11T00:53:10;98373;;;12.91;84.72
4326;BME280;58429;49.826;10.880;2023-05-11T00:54:10;98374;;;12.87;84.75
4326;BME280;58429;49.826;10.880;2023-05-11T00:55:11;98378;;;12.86;84.81
4326;BME280;58429;49.826;10.880;2023-05-11T00:56:10;98372;;;12.85;84.83
4326;BME280;58429;49.826;10.880;2023-05-11T00:57:10;98370;;;12.84;84.89
4326;BME280;58429;49.826;10.880;2023-05-11T00:58:10;98370;;;12.83;84.94
4326;BME280;58429;49.826;10.880;2023-05-11T00:59:10;98375;;;12.82;85.02
4326;BME280;58429;49.826;10.880;2023-05-11T01:00:11;98376;;;12.81;85.04
4326;BME280;58429;49.826;10.880;2023-05-11T01:01:10;98373;;;12.82;85.09
4326;BME280;58429;49.826;10.880;2023-05-11T01:02:10;98377;;;12.79;84.94
4326;BME280;58429;49.826;10.880;2023-05-11T01:03:10;98377;;;12.81;84.93
4326;BME280;58429;49.826;10.880;2023-05-11T01:04:10;98374;;;12.8;84.97
4326;BME280;58429;49.826;10.880;2023-05-11T01:05:10;98372;;;12.76;84.96
4326;BME280;58429;49.826;10.880;2023-05-11T01:06:11;98377;;;12.76;84.96
4326;BME280;58429;49.826;10.880;2023-05-11T01:07:11;98373;;;12.72;85.03
4326;BME280;58429;49.826;10.880;2023-05-11T01:08:11;98380;;;12.73;85.16
4326;BME280;58429;49.826;10.880;2023-05-11T01:09:11;98373;;;12.72;85.18
4326;BME280;58429;49.826;10.880;2023-05-11T01:10:12;98376;;;12.73;85.16
4326;BME280;58429;49.826;10.880;2023-05-11T01:11:12;98378;;;12.71;85.13
4326;BME280;58429;49.826;10.880;2023-05-11T01:12:12;98373;;;12.74;85.11
4326;BME280;58429;49.826;10.880;2023-05-11T01:13:13;98384;;;12.7;85.09
4326;BME280;58429;49.826;10.880;2023-05-11T01:14:12;98368;;;12.68;85.07
4326;BME280;58429;49.826;10.880;2023-05-11T01:15:11;98374;;;12.68;85.23
4326;BME280;58429;49.826;10.880;2023-05-11T01:16:11;98378;;;12.7;85.24
4326;BME280;58429;49.826;10.880;2023-05-11T01:17:12;98374;;;12.67;85.31
4326;BME280;58429;49.826;10.880;2023-05-11T01:18:11;98371;;;12.65;85.51
4326;BME280;58429;49.826;10.880;2023-05-11T01:19:15;98370;;;12.63;85.58
4326;BME280;58429;49.826;10.880;2023-05-11T01:20:11;98371;;;12.62;85.58
4326;BME280;58429;49.826;10.880;2023-05-11T01:21:10;98372;;;12.61;85.6
4326;BME280;58429;49.826;10.880;2023-05-11T01:22:15;98374;;;12.65;85.6
4326;BME280;58429;49.826;10.880;2023-05-11T01:23:18;98372;;;12.62;85.65
4326;BME280;58429;49.826;10.880;2023-05-11T01:24:18;98370;;;12.63;85.6
4326;BME280;58429;49.826;10.880;2023-05-11T01:25:12;98371;;;12.61;85.59
4326;BME280;58429;49.826;10.880;2023-05-11T01:26:20;98373;;;12.59;85.64
4326;BME280;58429;49.826;10.880;2023-05-11T01:27:20;98369;;;12.6;85.67
4326;BME280;58429;49.826;10.880;2023-05-11T01:28:29;98371;;;12.64;85.68
4326;BME280;58429;49.826;10.880;2023-05-11T01:29:16;98375;;;12.62;85.61
4326;BME280;58429;49.826;10.880;2023-05-11T01:30:23;98379;;;12.66;85.56
4326;BME280;58429;49.826;10.880;2023-05-11T01:31:11;98373;;;12.66;85.52
4326;BME280;58429;49.826;10.880;2023-05-11T01:32:13;98374;;;12.62;85.52
4326;BME280;58429;49.826;10.880;2023-05-11T01:33:11;98375;;;12.64;85.41
4326;BME280;58429;49.826;10.880;2023-05-11T01:34:11;98376;;;12.62;85.39
4326;BME280;58429;49.826;10.880;2023-05-11T01:35:11;98373;;;12.61;85.37
4326;BME280;58429;49.826;10.880;2023-05-11T01:36:10;98371;;;12.62;85.42
4326;BME280;58429;49.826;10.880;2023-05-11T01:37:11;98375;;;12.61;85.45
4326;BME280;58429;49.826;10.880;2023-05-11T01:38:10;98373;;;12.63;85.46
4326;BME280;58429;49.826;10.880;2023-05-11T01:39:10;98374;;;12.66;85.42
4326;BME280;58429;49.826;10.880;2023-05-11T01:40:11;98372;;;12.63;85.45
4326;BME280;58429;49.826;10.880;2023-05-11T01:41:11;98374;;;12.61;85.34
4326;BME280;58429;49.826;10.880;2023-05-11T01:42:10;98376;;;12.62;85.28
4326;BME280;58429;49.826;10.880;2023-05-11T01:43:11;98372;;;12.6;85.27
4326;BME280;58429;49.826;10.880;2023-05-11T01:44:10;98375;;;12.59;85.27
4326;BME280;58429;49.826;10.880;2023-05-11T01:45:10;98378;;;12.57;85.25
4326;BME280;58429;49.826;10.880;2023-05-11T01:46:11;98373;;;12.61;85.25
4326;BME280;58429;49.826;10.880;2023-05-11T01:47:10;98375;;;12.61;85.3
4326;BME280;58429;49.826;10.880;2023-05-11T01:48:12;98379;;;12.53;85.37
4326;BME280;58429;49.826;10.880;2023-05-11T01:49:10;98375;;;12.51;85.31
4326;BME280;58429;49.826;10.880;2023-05-11T01:50:10;98378;;;12.51;85.29
4326;BME280;58429;49.826;10.880;2023-05-11T01:51:10;98375;;;12.54;85.27
4326;BME280;58429;49.826;10.880;2023-05-11T01:52:10;98378;;;12.5;85.18
4326;BME280;58429;49.826;10.880;2023-05-11T01:53:10;98373;;;12.5;85.03
4326;BME280;58429;49.826;10.880;2023-05-11T01:54:10;98379;;;12.48;84.86
4326;BME280;58429;49.826;10.880;2023-05-11T01:55:10;98380;;;12.46;84.79
4326;BME280;58429;49.826;10.880;2023-05-11T01:56:10;98375;;;12.45;84.86
4326;BME280;58429;49.826;10.880;2023-05-11T01:57:10;98376;;;12.43;84.83
4326;BME280;58429;49.826;10.880;2023-05-11T01:58:11;98383;;;12.4;84.73
4326;BME280;58429;49.826;10.880;2023-05-11T01:59:10;98374;;;12.41;84.72
4326;BME280;58429;49.826;10.880;2023-05-11T02:00:10;98375;;;12.39;84.71
4326;BME280;58429;49.826;10.880;2023-05-11T02:01:10;98377;;;12.4;84.64
4326;BME280;58429;49.826;10.880;2023-05-11T02:02:10;98378;;;12.37;84.63
4326;BME280;58429;49.826;10.880;2023-05-11T02:03:10;98379;;;12.39;84.63
4326;BME280;58429;49.826;10.880;2023-05-11T02:04:10;98377;;;12.36;84.61
4326;BME280;58429;49.826;10.880;2023-05-11T02:05:10;98382;;;12.38;84.6
4326;BME280;58429;49.826;10.880;2023-05-11T02:06:10;98374;;;12.37;84.6
4326;BME280;58429;49.826;10.880;2023-05-11T02:07:10;98370;;;12.42;84.63
4326;BME280;58429;49.826;10.880;2023-05-11T02:08:10;98384;;;12.39;84.67
4326;BME280;58429;49.826;10.880;2023-05-11T02:09:11;98378;;;12.43;84.65
4326;BME280;58429;49.826;10.880;2023-05-11T02:10:10;98370;;;12.41;84.65
4326;BME280;58429;49.826;10.880;2023-05-11T02:11:10;98385;;;12.39;84.64
4326;BME280;58429;49.826;10.880;2023-05-11T02:12:10;98375;;;12.43;84.6
4326;BME280;58429;49.826;10.880;2023-05-11T02:13:10;98381;;;12.45;84.59
4326;BME280;58429;49.826;10.880;2023-05-11T02:14:10;98375;;;12.46;84.61
4326;BME280;58429;49.826;10.880;2023-05-11T02:15:10;98378;;;12.48;84.67
4326;BME280;58429;49.826;10.880;2023-05-11T02:16:10;98373;;;12.47;84.7
4326;BME280;58429;49.826;10.880;2023-05-11T02:17:10;98378;;;12.5;84.73
4326;BME280;58429;49.826;10.880;2023-05-11T02:18:11;98374;;;12.5;84.72
4326;BME280;58429;49.826;10.880;2023-05-11T02:19:11;98376;;;12.5;84.69
4326;BME280;58429;49.826;10.880;2023-05-11T02:20:10;98375;;;12.5;84.61
4326;BME280;58429;49.826;10.880;2023-05-11T02:21:10;98374;;;12.52;84.57
4326;BME280;58429;49.826;10.880;2023-05-11T02:22:11;98380;;;12.55;84.58
4326;BME280;58429;49.826;10.880;2023-05-11T02:23:10;98378;;;12.52;84.6
4326;BME280;58429;49.826;10.880;2023-05-11T02:24:10;98373;;;12.58;84.59
4326;BME280;58429;49.826;10.880;2023-05-11T02:25:10;98378;;;12.57;84.56
4326;BME280;58429;49.826;10.880;2023-05-11T02:26:10;98371;;;12.53;84.56
4326;BME280;58429;49.826;10.880;2023-05-11T02:27:10;98372;;;12.55;84.55
4326;BME280;58429;49.826;10.880;2023-05-11T02:28:10;98376;;;12.56;84.59
4326;BME280;58429;49.826;10.880;2023-05-11T02:29:10;98374;;;12.6;84.62
4326;BME280;58429;49.826;10.880;2023-05-11T02:30:10;98376;;;12.57;84.7
4326;BME280;58429;49.826;10.880;2023-05-11T02:32:11;98372;;;12.59;84.76
4326;BME280;58429;49.826;10.880;2023-05-11T02:33:11;98368;;;12.59;84.77
4326;BME280;58429;49.826;10.880;2023-05-11T02:34:12;98372;;;12.57;84.8
4326;BME280;58429;49.826;10.880;2023-05-11T02:35:15;98375;;;12.59;84.8
4326;BME280;58429;49.826;10.880;2023-05-11T02:36:11;98368;;;12.58;84.78
4326;BME280;58429;49.826;10.880;2023-05-11T02:37:11;98374;;;12.58;84.77
4326;BME280;58429;49.826;10.880;2023-05-11T02:38:10;98372;;;12.59;84.83
4326;BME280;58429;49.826;10.880;2023-05-11T02:39:10;98373;;;12.59;84.85
4326;BME280;58429;49.826;10.880;2023-05-11T02:40:12;98373;;;12.58;84.83
4326;BME280;58429;49.826;10.880;2023-05-11T02:41:11;98371;;;12.59;84.86
4326;BME280;58429;49.826;10.880;2023-05-11T02:42:11;98378;;;12.56;84.92
4326;BME280;58429;49.826;10.880;2023-05-11T02:43:12;98370;;;12.57;85.03
4326;BME280;58429;49.826;10.880;2023-05-11T02:44:11;98378;;;12.56;85.09
4326;BME280;58429;49.826;10.880;2023-05-11T02:45:11;98375;;;12.52;85.14
4326;BME280;58429;49.826;10.880;2023-05-11T02:46:11;98375;;;12.59;85.18
4326;BME280;58429;49.826;10.880;2023-05-11T02:47:11;98368;;;12.53;85.19
4326;BME280;58429;49.826;10.880;2023-05-11T02:48:11;98374;;;12.56;85.22
4326;BME280;58429;49.826;10.880;2023-05-11T02:49:10;98374;;;12.53;85.23
4326;BME280;58429;49.826;10.880;2023-05-11T02:50:10;98367;;;12.51;85.3
4326;BME280;58429;49.826;10.880;2023-05-11T02:51:11;98376;;;12.52;85.3
4326;BME280;58429;49.826;10.880;2023-05-11T02:52:11;98365;;;12.53;85.3
4326;BME280;58429;49.826;10.880;2023-05-11T02:53:13;98369;;;12.57;85.31
4326;BME280;58429;49.826;10.880;2023-05-11T02:54:10;98373;;;12.56;85.3
4326;BME280;58429;49.826;10.880;2023-05-11T02:55:10;98373;;;12.59;85.3
4326;BME280;58429;49.826;10.880;2023-05-11T02:56:10;98366;;;12.56;85.29
4326;BME280;58429;49.826;10.880;2023-05-11T02:57:10;98374;;;12.56;85.34
4326;BME280;58429;49.826;10.880;2023-05-11T02:58:10;98370;;;12.56;85.35
4326;BME280;58429;49.826;10.880;2023-05-11T02:59:10;98371;;;12.52;85.38
4326;BME280;58429;49.826;10.880;2023-05-11T03:00:11;98373;;;12.53;85.37
4326;BME280;58429;49.826;10.880;2023-05-11T03:01:10;98374;;;12.53;85.38
4326;BME280;58429;49.826;10.880;2023-05-11T03:02:10;98369;;;12.54;85.35
4326;BME280;58429;49.826;10.880;2023-05-11T03:03:10;98377;;;12.52;85.36
4326;BME280;58429;49.826;10.880;2023-05-11T03:04:10;98373;;;12.51;85.38
4326;BME280;58429;49.826;10.880;2023-05-11T03:05:10;98378;;;12.55;85.37
4326;BME280;58429;49.826;10.880;2023-05-11T03:06:10;98372;;;12.53;85.38
4326;BME280;58429;49.826;10.880;2023-05-11T03:07:10;98369;;;12.49;85.41
4326;BME280;58429;49.826;10.880;2023-05-11T03:08:10;98373;;;12.52;85.42
4326;BME280;58429;49.826;10.880;2023-05-11T03:09:10;98371;;;12.52;85.44
4326;BME280;58429;49.826;10.880;2023-05-11T03:10:11;98369;;;12.49;85.41
4326;BME280;58429;49.826;10.880;2023-05-11T03:11:10;98370;;;12.48;85.41
4326;BME280;58429;49.826;10.880;2023-05-11T03:12:10;98376;;;12.47;85.44
4326;BME280;58429;49.826;10.880;2023-05-11T03:13:10;98366;;;12.46;85.46
4326;BME280;58429;49.826;10.880;2023-05-11T03:14:10;98364;;;12.5;85.47
4326;BME280;58429;49.826;10.880;2023-05-11T03:15:10;98375;;;12.44;85.5
4326;BME280;58429;49.826;10.880;2023-05-11T03:16:10;98377;;;12.43;85.5
4326;BME280;58429;49.826;10.880;2023-05-11T03:17:10;98376;;;12.4;85.48
4326;BME280;58429;49.826;10.880;2023-05-11T03:18:10;98370;;;12.38;85.51
4326;BME280;58429;49.826;10.880;2023-05-11T03:19:11;98375;;;12.36;85.55
4326;BME280;58429;49.826;10.880;2023-05-11T03:20:11;98374;;;12.34;85.54
4326;BME280;58429;49.826;10.880;2023-05-11T03:21:10;98377;;;12.37;85.53
4326;BME280;58429;49.826;10.880;2023-05-11T03:22:10;98369;;;12.33;85.56
4326;BME280;58429;49.826;10.880;2023-05-11T03:23:10;98375;;;12.32;85.6
4326;BME280;58429;49.826;10.880;2023-05-11T03:24:11;98371;;;12.3;85.76
4326;BME280;58429;49.826;10.880;2023-05-11T03:25:10;98375;;;12.26;85.8
4326;BME280;58429;49.826;10.880;2023-05-11T03:26:10;98374;;;12.28;85.77
4326;BME280;58429;49.826;10.880;2023-05-11T03:27:11;98375;;;12.29;85.8
4326;BME280;58429;49.826;10.880;2023-05-11T03:28:11;98373;;;12.3;85.81
4326;BME280;58429;49.826;10.880;2023-05-11T03:29:10;98364;;;12.26;85.83
4326;BME280;58429;49.826;10.880;2023-05-11T03:30:11;98372;;;12.29;85.89
4326;BME280;58429;49.826;10.880;2023-05-11T03:31:10;98368;;;12.28;85.84
4326;BME280;58429;49.826;10.880;2023-05-11T03:32:10;98367;;;12.31;85.85
4326;BME280;58429;49.826;10.880;2023-05-11T03:33:10;98369;;;12.31;85.83
4326;BME280;58429;49.826;10.880;2023-05-11T03:34:10;98370;;;12.3;85.81
4326;BME280;58429;49.826;10.880;2023-05-11T03:35:10;98371;;;12.3;85.82
4326;BME280;58429;49.826;10.880;2023-05-11T03:36:10;98367;;;12.32;85.84
4326;BME280;58429;49.826;10.880;2023-05-11T03:37:11;98364;;;12.3;85.81
4326;BME280;58429;49.826;10.880;2023-05-11T03:38:11;98367;;;12.32;85.84
4326;BME280;58429;49.826;10.880;2023-05-11T03:39:10;98363;;;12.32;85.79
4326;BME280;58429;49.826;10.880;2023-05-11T03:40:11;98361;;;12.34;85.78
4326;BME280;58429;49.826;10.880;2023-05-11T03:41:11;98363;;;12.33;85.81
4326;BME280;58429;49.826;10.880;2023-05-11T03:42:11;98371;;;12.33;85.84
4326;BME280;58429;49.826;10.880;2023-05-11T03:43:11;98364;;;12.34;85.82
4326;BME280;58429;49.826;10.880;2023-05-11T03:44:11;98364;;;12.34;85.81
4326;BME280;58429;49.826;10.880;2023-05-11T03:45:11;98369;;;12.33;85.82
4326;BME280;58429;49.826;10.880;2023-05-11T03:46:11;98361;;;12.34;85.78
4326;BME280;58429;49.826;10.880;2023-05-11T03:47:10;98365;;;12.32;85.8
4326;BME280;58429;49.826;10.880;2023-05-11T03:48:10;98365;;;12.33;85.78
4326;BME280;58429;49.826;10.880;2023-05-11T03:49:10;98373;;;12.31;85.81
4326;BME280;58429;49.826;10.880;2023-05-11T03:50:10;98366;;;12.27;85.71
4326;BME280;58429;49.826;10.880;2023-05-11T03:51:10;98373;;;12.29;85.77
4326;BME280;58429;49.826;10.880;2023-05-11T03:52:10;98371;;;12.26;85.82
4326;BME280;58429;49.826;10.880;2023-05-11T03:53:10;98371;;;12.28;85.83
4326;BME280;58429;49.826;10.880;2023-05-11T03:54:11;98359;;;12.27;85.86
4326;BME280;58429;49.826;10.880;2023-05-11T03:55:10;98370;;;12.25;85.88
4326;BME280;58429;49.826;10.880;2023-05-11T03:56:10;98359;;;12.22;85.89
4326;BME280;58429;49.826;10.880;2023-05-11T03:57:10;98363;;;12.26;85.89
4326;BME280;58429;49.826;10.880;2023-05-11T03:58:10;98367;;;12.28;85.89
4326;BME280;58429;49.826;10.880;2023-05-11T03:59:13;98364;;;12.27;85.87
4326;BME280;58429;49.826;10.880;2023-05-11T04:00:11;98367;;;12.29;85.87
4326;BME280;58429;49.826;10.880;2023-05-11T04:01:11;98362;;;12.26;85.86
4326;BME280;58429;49.826;10.880;2023-05-11T04:02:10;98363;;;12.29;85.85
4326;BME280;58429;49.826;10.880;2023-05-11T04:03:10;98366;;;12.28;85.82
4326;BME280;58429;49.826;10.880;2023-05-11T04:04:10;98355;;;12.28;85.79
4326;BME280;58429;49.826;10.880;2023-05-11T04:05:11;98355;;;12.28;85.78
4326;BME280;58429;49.826;10.880;2023-05-11T04:06:10;98357;;;12.33;85.85
4326;BME280;58429;49.826;10.880;2023-05-11T04:07:10;98355;;;12.33;85.85
4326;BME280;58429;49.826;10.880;2023-05-11T04:08:10;98358;;;12.34;85.85
4326;BME280;58429;49.826;10.880;2023-05-11T04:09:10;98359;;;12.34;85.84
4326;BME280;58429;49.826;10.880;2023-05-11T04:10:11;98359;;;12.34;85.9
4326;BME280;58429;49.826;10.880;2023-05-11T04:11:10;98360;;;12.33;85.87
4326;BME280;58429;49.826;10.880;2023-05-11T04:12:10;98357;;;12.33;85.83
4326;BME280;58429;49.826;10.880;2023-05-11T04:13:11;98358;;;12.34;85.8
4326;BME280;58429;49.826;10.880;2023-05-11T04:14:10;98356;;;12.33;85.77
4326;BME280;58429;49.826;10.880;2023-05-11T04:15:10;98353;;;12.34;85.75
4326;BME280;58429;49.826;10.880;2023-05-11T04:16:10;98356;;;12.34;85.77
4326;BME280;58429;49.826;10.880;2023-05-11T04:17:11;98356;;;12.32;85.73
4326;BME280;58429;49.826;10.880;2023-05-11T04:18:10;98349;;;12.33;85.68
4326;BME280;58429;49.826;10.880;2023-05-11T04:19:10;98360;;;12.31;85.67
4326;BME280;58429;49.826;10.880;2023-05-11T04:20:11;98351;;;12.3;85.65
4326;BME280;58429;49.826;10.880;2023-05-11T04:21:10;98358;;;12.31;85.58
4326;BME280;58429;49.826;10.880;2023-05-11T04:22:10;98356;;;12.29;85.54
4326;BME280;58429;49.826;10.880;2023-05-11T04:23:10;98357;;;12.29;85.53
4326;BME280;58429;49.826;10.880;2023-05-11T04:24:10;98355;;;12.32;85.56
4326;BME280;58429;49.826;10.880;2023-05-11T04:25:11;98353;;;12.3;85.62
4326;BME280;58429;49.826;10.880;2023-05-11T04:26:10;98354;;;12.26;85.58
4326;BME280;58429;49.826;10.880;2023-05-11T04:27:10;98361;;;12.25;85.58
4326;BME280;58429;49.826;10.880;2023-05-11T04:28:10;98353;;;12.27;85.57
4326;BME280;58429;49.826;10.880;2023-05-11T04:29:10;98353;;;12.26;85.52
4326;BME280;58429;49.826;10.880;2023-05-11T04:30:11;98362;;;12.26;85.52
4326;BME280;58429;49.826;10.880;2023-05-11T04:31:10;98349;;;12.26;85.6
4326;BME280;58429;49.826;10.880;2023-05-11T04:32:10;98356;;;12.21;85.72
4326;BME280;58429;49.826;10.880;2023-05-11T04:33:10;98357;;;12.21;85.67
4326;BME280;58429;49.826;10.880;2023-05-11T04:34:10;98352;;;12.14;85.68
4326;BME280;58429;49.826;10.880;2023-05-11T04:35:11;98355;;;12.16;85.68
4326;BME280;58429;49.826;10.880;2023-05-11T04:36:10;98353;;;12.2;85.72
4326;BME280;58429;49.826;10.880;2023-05-11T04:37:10;98351;;;12.23;85.76
4326;BME280;58429;49.826;10.880;2023-05-11T04:38:10;98359;;;12.18;85.86
4326;BME280;58429;49.826;10.880;2023-05-11T04:39:10;98355;;;12.17;85.99
4326;BME280;58429;49.826;10.880;2023-05-11T04:40:11;98356;;;12.1;86.08
4326;BME280;58429;49.826;10.880;2023-05-11T04:41:11;98358;;;12.09;85.98
4326;BME280;58429;49.826;10.880;2023-05-11T04:42:10;98349;;;12.05;85.89
4326;BME280;58429;49.826;10.880;2023-05-11T04:43:10;98351;;;12.08;85.85
4326;BME280;58429;49.826;10.880;2023-05-11T04:44:10;98353;;;11.99;85.75
4326;BME280;58429;49.826;10.880;2023-05-11T04:45:10;98355;;;11.99;85.84
4326;BME280;58429;49.826;10.880;2023-05-11T04:46:10;98355;;;11.98;85.87
4326;BME280;58429;49.826;10.880;2023-05-11T04:47:10;98353;;;12;86.14
4326;BME280;58429;49.826;10.880;2023-05-11T04:48:10;98359;;;11.97;86.14
4326;BME280;58429;49.826;10.880;2023-05-11T04:49:10;98354;;;11.97;86.15
4326;BME280;58429;49.826;10.880;2023-05-11T04:50:11;98357;;;11.98;86.14
4326;BME280;58429;49.826;10.880;2023-05-11T04:51:10;98362;;;12.03;86.09
4326;BME280;58429;49.826;10.880;2023-05-11T04:52:10;98356;;;12.01;86.13
4326;BME280;58429;49.826;10.880;2023-05-11T04:53:10;98360;;;12;86.12
4326;BME280;58429;49.826;10.880;2023-05-11T04:54:10;98352;;;11.96;86.17
4326;BME280;58429;49.826;10.880;2023-05-11T04:55:11;98355;;;11.95;86.21
4326;BME280;58429;49.826;10.880;2023-05-11T04:56:11;98353;;;11.94;86.12
4326;BME280;58429;49.826;10.880;2023-05-11T04:57:10;98358;;;11.94;86.12
4326;BME280;58429;49.826;10.880;2023-05-11T04:58:10;98351;;;11.95;86.09
4326;BME280;58429;49.826;10.880;2023-05-11T04:59:10;98360;;;11.93;86.15
4326;BME280;58429;49.826;10.880;2023-05-11T05:00:11;98360;;;11.93;86.03
4326;BME280;58429;49.826;10.880;2023-05-11T05:01:10;98356;;;11.92;85.97
4326;BME280;58429;49.826;10.880;2023-05-11T05:02:10;98355;;;11.94;85.99
4326;BME280;58429;49.826;10.880;2023-05-11T05:03:11;98359;;;11.89;86.18
4326;BME280;58429;49.826;10.880;2023-05-11T05:04:10;98362;;;11.92;86.15
4326;BME280;58429;49.826;10.880;2023-05-11T05:05:10;98364;;;11.91;86.18
4326;BME280;58429;49.826;10.880;2023-05-11T05:06:10;98362;;;11.89;86.19
4326;BME280;58429;49.826;10.880;2023-05-11T05:07:10;98363;;;11.93;86.23
4326;BME280;58429;49.826;10.880;2023-05-11T05:08:10;98368;;;11.95;86.24
4326;BME280;58429;49.826;10.880;2023-05-11T05:09:10;98370;;;11.94;86.3
4326;BME280;58429;49.826;10.880;2023-05-11T05:10:10;98367;;;11.89;86.34
4326;BME280;58429;49.826;10.880;2023-05-11T05:11:11;98367;;;11.88;86.37
4326;BME280;58429;49.826;10.880;2023-05-11T05:12:11;98370;;;11.86;86.34
4326;BME280;58429;49.826;10.880;2023-05-11T05:13:11;98375;;;11.86;86.25
4326;BME280;58429;49.826;10.880;2023-05-11T05:14:11;98369;;;11.86;86.29
4326;BME280;58429;49.826;10.880;2023-05-11T05:15:11;98374;;;11.85;86.35
4326;BME280;58429;49.826;10.880;2023-05-11T05:16:11;98378;;;11.86;86.38
4326;BME280;58429;49.826;10.880;2023-05-11T05:17:10;98375;;;11.84;86.32
4326;BME280;58429;49.826;10.880;2023-05-11T05:18:10;98370;;;11.84;86.42
4326;BME280;58429;49.826;10.880;2023-05-11T05:19:11;98370;;;11.83;86.34
4326;BME280;58429;49.826;10.880;2023-05-11T05:20:11;98375;;;11.84;86.5
4326;BME280;58429;49.826;10.880;2023-05-11T05:21:11;98375;;;11.82;86.48
4326;BME280;58429;49.826;10.880;2023-05-11T05:22:10;98378;;;11.81;86.44
4326;BME280;58429;49.826;10.880;2023-05-11T05:23:10;98375;;;11.83;86.41
4326;BME280;58429;49.826;10.880;2023-05-11T05:24:10;98383;;;11.82;86.45
4326;BME280;58429;49.826;10.880;2023-05-11T05:25:10;98374;;;11.83;86.4
4326;BME280;58429;49.826;10.880;2023-05-11T05:26:10;98373;;;11.86;86.43
4326;BME280;58429;49.826;10.880;2023-05-11T05:27:10;98375;;;11.83;86.35
4326;BME280;58429;49.826;10.880;2023-05-11T05:28:11;98377;;;11.83;86.38
4326;BME280;58429;49.826;10.880;2023-05-11T05:29:11;98373;;;11.85;86.4
4326;BME280;58429;49.826;10.880;2023-05-11T05:30:11;98372;;;11.89;86.42
4326;BME280;58429;49.826;10.880;2023-05-11T05:31:10;98380;;;11.89;86.36
4326;BME280;58429;49.826;10.880;2023-05-11T05:32:11;98376;;;11.95;86.31